Time;durP1;ratioP1;P1;durP2;ratioP2;P2;SDS_P1;SDS_P2;PMS_P1;PMS_P2;Temp;Humidity;BMP_temperature;BMP_pressure;BME280_temperature;BME280_humidity;BME280_pressure;Samples;Min_cycle;Max_cycle;Signal;HPM_P1;HPM_P2
2021/08/17 00:02:24;;;;;;;8.82;5.47;;;;;;;13.35;79.99;99097.75;5066204;28;20025;-70
2021/08/17 00:04:50;;;;;;;12.57;6.47;;;;;;;13.35;80.34;99097.75;5065896;28;20612;-70
2021/08/17 00:07:16;;;;;;;9.20;5.55;;;;;;;13.38;80.42;99087.22;5066097;28;20112;-71
2021/08/17 00:09:42;;;;;;;11.10;5.28;;;;;;;13.36;80.56;99083.81;5064505;28;20036;-69
2021/08/17 00:12:07;;;;;;;9.20;5.47;;;;;;;13.37;80.76;99077.66;5066040;28;20386;-68
2021/08/17 00:14:33;;;;;;;10.63;5.97;;;;;;;13.38;80.84;99083.75;5065882;28;20025;-69
2021/08/17 00:16:58;;;;;;;6.72;4.57;;;;;;;13.35;81.24;99079.50;5065766;28;20021;-70
2021/08/17 00:19:23;;;;;;;13.43;5.78;;;;;;;13.34;81.21;99075.19;5065897;28;20029;-71
2021/08/17 00:21:49;;;;;;;13.10;6.45;;;;;;;13.30;81.18;99080.59;5065502;28;20096;-73
2021/08/17 00:24:14;;;;;;;12.18;6.55;;;;;;;13.27;81.41;99086.78;5065515;28;20032;-73
2021/08/17 00:26:39;;;;;;;10.25;6.15;;;;;;;13.25;81.57;99081.66;5065750;28;20027;-72
2021/08/17 00:29:05;;;;;;;11.75;6.78;;;;;;;13.22;81.81;99080.91;5065586;28;20025;-71
2021/08/17 00:31:30;;;;;;;10.45;6.55;;;;;;;13.16;81.99;99074.22;5065285;28;20154;-72
2021/08/17 00:33:55;;;;;;;13.45;6.65;;;;;;;13.14;81.87;99057.78;5065147;28;20024;-74
2021/08/17 00:36:21;;;;;;;11.85;6.40;;;;;;;13.14;82.37;99071.66;5064186;28;20025;-72
2021/08/17 00:38:46;;;;;;;11.98;6.70;;;;;;;13.08;82.37;99064.06;5065414;28;20400;-72
2021/08/17 00:41:12;;;;;;;16.88;7.90;;;;;;;13.08;82.66;99063.25;5064149;28;20036;-75
2021/08/17 00:43:39;;;;;;;17.05;7.50;;;;;;;13.07;82.82;99057.19;5063778;28;20025;-75
2021/08/17 00:46:05;;;;;;;17.27;7.43;;;;;;;13.06;83.08;99060.69;5065044;28;20029;-74
2021/08/17 00:48:30;;;;;;;16.60;7.25;;;;;;;12.98;83.57;99058.41;5065119;28;20108;-73
2021/08/17 00:50:56;;;;;;;17.13;8.27;;;;;;;12.98;83.69;99060.16;5064946;28;20025;-73
2021/08/17 00:53:21;;;;;;;13.65;7.53;;;;;;;13.01;83.98;99058.28;5064899;28;20488;-74
2021/08/17 00:55:48;;;;;;;15.65;7.82;;;;;;;13.00;84.02;99051.34;5064943;28;20386;-74
2021/08/17 00:58:14;;;;;;;15.02;7.90;;;;;;;13.02;84.35;99051.28;5064802;28;20036;-74
2021/08/17 01:00:39;;;;;;;17.30;8.00;;;;;;;13.00;84.33;99040.09;5064711;28;20021;-74
2021/08/17 01:03:05;;;;;;;14.10;6.90;;;;;;;12.99;84.79;99051.41;5064832;28;20021;-74
2021/08/17 01:05:30;;;;;;;10.85;5.95;;;;;;;12.95;84.72;99042.91;5064800;28;20029;-75
2021/08/17 01:08:00;;;;;;;16.52;8.68;;;;;;;12.95;84.94;99047.25;5064595;28;20129;-76
2021/08/17 01:10:26;;;;;;;18.85;8.70;;;;;;;12.88;85.60;99041.44;5063524;28;20075;-78
2021/08/17 01:12:51;;;;;;;16.02;8.65;;;;;;;12.86;85.86;99033.69;5064786;28;20017;-79
2021/08/17 01:15:16;;;;;;;24.45;9.80;;;;;;;12.85;85.70;99037.22;5065005;28;20021;-78
2021/08/17 01:17:42;;;;;;;16.17;9.07;;;;;;;12.87;85.93;99043.22;5064563;28;20075;-79
2021/08/17 01:20:17;;;;;;;19.90;9.00;;;;;;;12.87;86.45;99044.97;5064845;28;20092;-79
2021/08/17 01:22:44;;;;;;;21.42;9.65;;;;;;;12.87;86.77;99045.81;5063270;28;20028;-78
2021/08/17 01:25:11;;;;;;;17.42;8.32;;;;;;;12.88;86.97;99052.72;5064681;28;20051;-81
2021/08/17 01:27:38;;;;;;;26.58;10.80;;;;;;;12.84;87.04;99040.69;5064755;28;20300;-80
2021/08/17 01:30:04;;;;;;;22.50;10.40;;;;;;;12.87;87.25;99040.59;5065216;28;20105;-81
2021/08/17 01:32:30;;;;;;;21.77;9.77;;;;;;;12.87;87.29;99035.41;5064636;28;20029;-79
2021/08/17 01:34:55;;;;;;;35.72;10.23;;;;;;;12.85;87.40;99037.22;5063043;28;20045;-78
2021/08/17 01:37:21;;;;;;;22.02;9.27;;;;;;;12.86;87.81;99036.28;5064339;28;20024;-79
2021/08/17 01:40:01;;;;;;;18.95;8.65;;;;;;;12.84;87.90;99034.66;5064381;28;20024;-78
2021/08/17 01:42:27;;;;;;;33.45;10.18;;;;;;;12.83;88.04;99044.22;5064319;28;20035;-76
2021/08/17 01:44:55;;;;;;;17.15;8.88;;;;;;;12.83;88.32;99039.03;5064053;28;20024;-78
2021/08/17 01:47:20;;;;;;;15.70;7.28;;;;;;;12.78;88.64;99033.13;5062943;28;20025;-77
2021/08/17 01:49:46;;;;;;;15.55;8.13;;;;;;;12.79;88.85;99031.38;5063810;28;20031;-76
2021/08/17 01:52:11;;;;;;;18.88;9.82;;;;;;;12.77;88.81;99029.72;5062608;28;20067;-76
2021/08/17 01:54:36;;;;;;;16.65;6.90;;;;;;;12.79;89.10;99027.03;5063737;28;20081;-74
2021/08/17 01:57:02;;;;;;;19.02;9.05;;;;;;;12.78;89.11;99025.31;5063918;28;20025;-74
2021/08/17 01:59:29;;;;;;;19.88;9.32;;;;;;;12.79;89.38;99027.03;5063739;28;20488;-75
2021/08/17 02:01:55;;;;;;;17.90;9.93;;;;;;;12.81;89.44;99030.41;5063759;28;20071;-75
2021/08/17 02:04:20;;;;;;;16.52;8.57;;;;;;;12.82;89.33;99028.66;5063552;28;20021;-74
2021/08/17 02:06:46;;;;;;;19.38;9.18;;;;;;;12.77;89.27;99026.25;5062207;28;20025;-73
2021/08/17 02:09:11;;;;;;;19.80;8.65;;;;;;;12.79;89.63;99027.03;5063585;28;20069;-74
2021/08/17 02:11:36;;;;;;;20.30;9.82;;;;;;;12.78;89.43;99030.53;5063482;28;20032;-73
2021/08/17 02:14:03;;;;;;;17.55;9.57;;;;;;;12.80;89.47;99031.34;5063448;28;20029;-74
2021/08/17 02:16:28;;;;;;;23.98;9.70;;;;;;;12.82;89.70;99036.47;5063452;28;20025;-73
2021/08/17 02:18:53;;;;;;;20.55;9.55;;;;;;;12.82;89.87;99028.66;5062088;28;20032;-74
2021/08/17 02:21:19;;;;;;;16.02;8.93;;;;;;;12.78;89.74;99030.53;5063625;28;20024;-73
2021/08/17 02:23:44;;;;;;;19.60;10.18;;;;;;;12.81;89.96;99035.63;5063500;28;20032;-73
2021/08/17 02:26:09;;;;;;;19.70;10.57;;;;;;;12.81;89.99;99035.63;5063331;28;20025;-73
2021/08/17 02:28:35;;;;;;;22.85;9.85;;;;;;;12.81;89.93;99025.19;5063324;28;20029;-74
2021/08/17 02:31:00;;;;;;;23.23;9.85;;;;;;;12.79;90.13;99023.56;5063599;28;20021;-75
2021/08/17 02:33:25;;;;;;;29.80;10.57;;;;;;;12.77;90.17;99021.03;5063292;28;20040;-75
2021/08/17 02:35:51;;;;;;;24.88;10.63;;;;;;;12.85;90.37;99023.31;5063332;28;20084;-75
2021/08/17 02:38:16;;;;;;;22.80;10.45;;;;;;;12.87;90.29;99024.97;5063635;28;20028;-74
2021/08/17 02:40:42;;;;;;;27.30;11.55;;;;;;;12.85;90.24;99016.38;5063347;28;20390;-74
2021/08/17 02:43:07;;;;;;;25.02;10.40;;;;;;;12.84;90.22;99017.25;5061735;28;20025;-74
2021/08/17 02:45:33;;;;;;;30.23;11.23;;;;;;;12.83;90.22;99015.56;5061695;28;20032;-74
2021/08/17 02:48:00;;;;;;;24.63;10.95;;;;;;;12.86;90.31;99018.06;5063328;28;20029;-74
2021/08/17 02:50:26;;;;;;;22.92;10.20;;;;;;;12.90;90.45;99010.97;5063342;28;20460;-74
2021/08/17 02:52:52;;;;;;;24.83;11.25;;;;;;;12.87;90.30;99011.97;5063048;28;20057;-74
2021/08/17 02:55:17;;;;;;;26.23;10.32;;;;;;;12.91;90.46;99004.03;5064185;28;20029;-74
2021/08/17 02:57:47;;;;;;;20.50;11.10;;;;;;;12.95;90.33;99001.22;5067382;28;20024;-74
2021/08/17 03:00:13;;;;;;;28.30;11.77;;;;;;;12.92;90.37;99000.50;5067268;28;20051;-70
2021/08/17 03:02:39;;;;;;;16.80;9.20;;;;;;;12.98;90.20;99000.25;5067136;28;20045;-73
2021/08/17 03:05:04;;;;;;;26.85;10.30;;;;;;;12.92;90.34;99001.34;5067096;28;20057;-74
2021/08/17 03:07:29;;;;;;;22.17;11.30;;;;;;;12.88;90.64;98994.56;5067300;28;20040;-74
2021/08/17 03:09:55;;;;;;;20.60;10.85;;;;;;;12.89;90.51;99001.47;5066981;28;20388;-75
2021/08/17 03:12:20;;;;;;;23.95;10.18;;;;;;;12.89;90.73;98996.28;5067115;28;20021;-74
2021/08/17 03:14:45;;;;;;;22.50;10.70;;;;;;;12.88;90.52;98992.81;5065698;28;20021;-73
2021/08/17 03:17:11;;;;;;;18.48;8.90;;;;;;;12.90;90.89;98987.53;5066925;28;20529;-74
2021/08/17 03:19:36;;;;;;;18.30;10.70;;;;;;;12.86;91.13;98991.19;5067086;28;20029;-74
2021/08/17 03:22:02;;;;;;;25.33;10.00;;;;;;;12.88;90.89;98997.16;5067122;28;20021;-73
2021/08/17 03:24:27;;;;;;;20.90;9.07;;;;;;;12.83;91.04;98984.31;5066968;28;20029;-72
2021/08/17 03:26:52;;;;;;;23.63;9.77;;;;;;;12.86;90.90;98985.97;5066358;28;20021;-74
2021/08/17 03:29:19;;;;;;;20.08;10.07;;;;;;;12.91;91.00;99001.41;5065748;28;20066;-73
2021/08/17 03:31:45;;;;;;;22.58;10.10;;;;;;;12.88;91.00;98991.94;5066273;28;20512;-72
2021/08/17 03:34:10;;;;;;;22.13;9.95;;;;;;;12.88;91.28;98995.41;5067002;28;20033;-73
2021/08/17 03:36:36;;;;;;;25.05;11.20;;;;;;;12.88;91.25;98990.19;5066628;28;20045;-72
2021/08/17 03:39:02;;;;;;;22.48;11.18;;;;;;;12.89;91.30;98997.09;5066554;28;20096;-74
2021/08/17 03:41:28;;;;;;;33.05;12.18;;;;;;;12.87;91.16;98991.13;5066655;28;20025;-73
2021/08/17 03:43:53;;;;;;;34.03;11.35;;;;;;;12.93;91.33;98987.41;5066583;28;20100;-74
2021/08/17 03:46:18;;;;;;;21.00;9.50;;;;;;;12.93;91.36;98981.34;5066595;28;20029;-74
2021/08/17 03:48:44;;;;;;;22.85;9.43;;;;;;;13.00;91.49;98988.00;5065180;28;20032;-73
2021/08/17 03:51:09;;;;;;;26.08;10.10;;;;;;;12.95;91.25;98984.75;5066394;28;20424;-73
2021/08/17 03:53:36;;;;;;;27.67;10.20;;;;;;;12.93;91.14;98986.56;5066660;28;20036;-73
2021/08/17 03:56:01;;;;;;;22.38;9.68;;;;;;;12.93;91.45;98981.34;5066502;28;20379;-72
2021/08/17 03:58:27;;;;;;;26.80;11.25;;;;;;;12.96;91.36;98981.22;5066078;28;20020;-72
2021/08/17 04:00:52;;;;;;;17.98;8.60;;;;;;;12.96;91.58;98974.25;5066356;28;20027;-73
2021/08/17 04:03:18;;;;;;;22.83;8.93;;;;;;;12.96;91.43;98982.06;5066408;28;20550;-73
2021/08/17 04:05:43;;;;;;;17.10;8.60;;;;;;;12.99;91.66;98976.72;5066098;28;20028;-74
2021/08/17 04:08:09;;;;;;;16.52;8.20;;;;;;;12.98;91.38;98967.22;5063111;28;20044;-73
2021/08/17 04:10:34;;;;;;;21.08;9.15;;;;;;;12.97;91.47;98969.91;5065902;28;20032;-74
2021/08/17 04:13:00;;;;;;;20.40;9.70;;;;;;;12.97;91.61;98965.53;5065810;28;20021;-74
2021/08/17 04:15:25;;;;;;;33.20;10.15;;;;;;;12.98;91.90;98963.78;5065867;28;20020;-73
2021/08/17 04:17:50;;;;;;;15.88;8.07;;;;;;;12.96;91.70;98961.22;5065960;28;20017;-73
2021/08/17 04:20:16;;;;;;;20.38;9.35;;;;;;;12.95;91.65;98959.53;5065736;28;20025;-73
2021/08/17 04:22:42;;;;;;;22.38;8.98;;;;;;;12.95;91.78;98959.53;5065688;28;20025;-74
2021/08/17 04:25:09;;;;;;;22.55;9.68;;;;;;;12.95;91.73;98950.88;5065834;28;20021;-74
2021/08/17 04:27:35;;;;;;;15.00;8.27;;;;;;;12.99;91.89;98958.50;5065704;28;20029;-73
2021/08/17 04:30:01;;;;;;;33.70;10.55;;;;;;;13.00;92.10;98959.34;5065526;28;20048;-73
2021/08/17 04:32:28;;;;;;;24.23;9.15;;;;;;;12.99;92.06;98955.88;5065421;28;20021;-74
2021/08/17 04:34:53;;;;;;;16.13;8.95;;;;;;;12.97;91.99;98947.28;5064340;28;20028;-72
2021/08/17 04:37:19;;;;;;;27.05;10.02;;;;;;;12.98;92.01;98943.78;5065177;28;20020;-72
2021/08/17 04:39:44;;;;;;;20.95;9.45;;;;;;;12.99;91.87;98950.69;5063602;28;20032;-72
2021/08/17 04:42:09;;;;;;;22.23;9.25;;;;;;;12.95;91.93;98937.84;5064604;28;20029;-71
2021/08/17 04:44:35;;;;;;;21.60;9.13;;;;;;;12.98;91.92;98953.34;5063882;28;20048;-71
2021/08/17 04:47:01;;;;;;;26.23;9.48;;;;;;;12.97;92.18;98946.47;5065239;28;20029;-70
2021/08/17 04:49:26;;;;;;;17.05;8.10;;;;;;;12.95;91.90;98945.66;5065197;28;20035;-74
2021/08/17 04:51:51;;;;;;;23.55;9.30;;;;;;;12.92;92.05;98949.25;5065148;28;20025;-72
2021/08/17 04:54:17;;;;;;;31.20;11.13;;;;;;;12.88;92.08;98945.94;5065345;28;20032;-72
2021/08/17 04:56:42;;;;;;;22.10;10.10;;;;;;;12.88;92.03;98947.66;5065211;28;20025;-69
2021/08/17 04:59:07;;;;;;;21.73;7.93;;;;;;;12.83;92.22;98940.06;5064615;28;20024;-71
2021/08/17 05:01:33;;;;;;;19.58;9.05;;;;;;;12.84;92.18;98941.75;5065114;28;20024;-72
2021/08/17 05:03:58;;;;;;;22.80;9.30;;;;;;;12.85;92.48;98938.25;5064872;28;20057;-70
2021/08/17 05:06:24;;;;;;;20.60;8.73;;;;;;;12.88;92.57;98943.31;5064610;28;20059;-70
2021/08/17 05:08:49;;;;;;;29.23;10.05;;;;;;;12.94;92.74;98938.78;5064442;28;20497;-71
2021/08/17 05:11:15;;;;;;;22.02;8.75;;;;;;;12.99;92.72;98942.00;5063703;28;20040;-71
2021/08/17 05:13:41;;;;;;;22.83;8.90;;;;;;;13.00;92.74;98938.50;5064778;28;20384;-71
2021/08/17 05:16:06;;;;;;;19.23;8.25;;;;;;;13.00;92.50;98930.69;5064541;28;20076;-71
2021/08/17 05:18:34;;;;;;;26.33;10.27;;;;;;;12.96;92.62;98932.56;5064526;28;20021;-71
2021/08/17 05:21:00;;;;;;;23.60;9.65;;;;;;;12.97;92.52;98938.66;5064617;28;20032;-71
2021/08/17 05:23:26;;;;;;;25.42;9.65;;;;;;;12.99;92.62;98929.84;5064918;28;20233;-69
2021/08/17 05:25:52;;;;;;;24.13;8.98;;;;;;;13.00;92.84;98920.28;5064605;28;20222;-75
2021/08/17 05:28:17;;;;;;;17.27;8.30;;;;;;;13.05;92.84;98933.94;5064756;28;20028;-70
2021/08/17 05:30:42;;;;;;;17.70;8.77;;;;;;;13.05;92.65;98931.31;5064423;28;20099;-69
2021/08/17 05:33:08;;;;;;;21.33;9.10;;;;;;;13.10;92.89;98921.56;5062874;28;20055;-70
2021/08/17 05:35:33;;;;;;;19.73;8.25;;;;;;;13.14;93.01;98922.28;5064299;28;20086;-69
2021/08/17 05:37:58;;;;;;;17.83;7.97;;;;;;;13.18;93.05;98921.22;5063731;28;20021;-69
2021/08/17 05:40:24;;;;;;;21.05;8.45;;;;;;;13.20;93.10;98918.56;5064213;28;20504;-69
2021/08/17 05:42:49;;;;;;;22.38;9.35;;;;;;;13.23;92.84;98921.03;5064159;28;20045;-70
2021/08/17 05:45:15;;;;;;;28.73;9.73;;;;;;;13.22;93.22;98903.72;5064243;28;20025;-69
2021/08/17 05:47:42;;;;;;;19.27;7.35;;;;;;;13.28;92.88;98911.25;5064731;28;20084;-68
2021/08/17 05:50:08;;;;;;;21.10;7.88;;;;;;;13.30;93.19;98912.03;5062833;28;20048;-69
2021/08/17 05:52:33;;;;;;;18.45;7.60;;;;;;;13.25;93.03;98893.16;5063089;28;20033;-70
2021/08/17 05:54:59;;;;;;;21.38;7.40;;;;;;;13.31;92.96;98898.09;5062166;28;20025;-69
2021/08/17 05:57:24;;;;;;;16.13;7.25;;;;;;;13.32;92.93;98886.75;5063887;28;20052;-69
2021/08/17 05:59:49;;;;;;;14.05;7.28;;;;;;;13.32;93.06;98891.13;5063708;28;20040;-70
2021/08/17 06:02:15;;;;;;;14.25;6.45;;;;;;;13.31;93.02;98887.66;5063951;28;20017;-70
2021/08/17 06:04:40;;;;;;;16.25;7.60;;;;;;;13.29;93.13;98894.69;5063712;28;20021;-70
2021/08/17 06:07:05;;;;;;;13.77;6.57;;;;;;;13.27;92.91;98889.56;5063789;28;20041;-71
2021/08/17 06:09:34;;;;;;;14.23;7.10;;;;;;;13.27;93.08;98888.72;5062003;28;20049;-70
2021/08/17 06:12:01;;;;;;;18.08;6.93;;;;;;;13.24;93.05;98883.66;5063624;28;20444;-70
2021/08/17 06:14:26;;;;;;;18.13;7.70;;;;;;;13.24;93.03;98896.69;5062303;28;20028;-70
2021/08/17 06:16:52;;;;;;;13.30;6.07;;;;;;;13.24;93.05;98879.25;5063462;28;20017;-70
2021/08/17 06:19:18;;;;;;;16.40;7.10;;;;;;;13.26;93.17;98894.84;5063596;28;20029;-72
2021/08/17 06:21:44;;;;;;;14.05;6.40;;;;;;;13.26;93.29;98900.91;5063441;28;20029;-70
2021/08/17 06:24:10;;;;;;;18.23;6.70;;;;;;;13.24;93.28;98892.28;5061887;28;20042;-69
2021/08/17 06:26:35;;;;;;;14.30;6.78;;;;;;;13.24;93.49;98889.69;5063605;28;20092;-69
2021/08/17 06:29:00;;;;;;;13.52;6.55;;;;;;;13.28;93.42;98898.22;5063350;28;20481;-70
2021/08/17 06:31:26;;;;;;;13.13;7.03;;;;;;;13.32;93.56;98888.53;5062701;28;20021;-70
2021/08/17 06:33:56;;;;;;;12.40;6.38;;;;;;;13.36;93.60;98880.50;5062741;28;20021;-69
2021/08/17 06:36:23;;;;;;;13.48;5.78;;;;;;;13.33;93.30;98883.25;5062980;28;20017;-70
2021/08/17 06:38:49;;;;;;;14.18;6.47;;;;;;;13.33;93.23;98885.00;5063244;28;20025;-70
2021/08/17 06:41:14;;;;;;;11.82;6.15;;;;;;;13.34;93.41;98882.31;5062707;28;20029;-69
2021/08/17 06:43:40;;;;;;;10.23;5.65;;;;;;;13.32;93.35;98870.28;5063171;28;20035;-69
2021/08/17 06:46:06;;;;;;;8.85;4.63;;;;;;;13.31;93.35;98871.16;5063216;28;20028;-70
2021/08/17 06:48:31;;;;;;;8.73;5.05;;;;;;;13.36;93.47;98885.72;5063177;28;20021;-69
2021/08/17 06:50:57;;;;;;;11.73;5.00;;;;;;;13.35;93.45;98884.03;5063063;28;20029;-69
2021/08/17 06:53:23;;;;;;;12.68;5.03;;;;;;;13.37;93.65;98884.78;5063124;28;20071;-69
2021/08/17 06:55:49;;;;;;;11.43;4.85;;;;;;;13.38;93.57;98899.53;5063231;28;20090;-69
2021/08/17 06:58:14;;;;;;;14.73;5.55;;;;;;;13.40;93.34;98889.03;5062882;28;20123;-69
2021/08/17 07:00:46;;;;;;;9.27;4.43;;;;;;;13.42;93.73;98881.97;5063022;28;20021;-69
2021/08/17 07:03:12;;;;;;;9.35;4.57;;;;;;;13.42;93.25;98888.97;5062976;28;20025;-69
2021/08/17 07:05:42;;;;;;;11.38;4.28;;;;;;;13.43;93.40;98885.44;5062980;28;20025;-68
2021/08/17 07:08:09;;;;;;;12.65;4.47;;;;;;;13.35;93.36;98885.78;5061429;28;20110;-68
2021/08/17 07:10:36;;;;;;;8.98;4.82;;;;;;;13.38;93.60;98883.03;5062871;28;20059;-68
2021/08/17 07:13:02;;;;;;;7.45;4.10;;;;;;;13.39;93.44;98887.31;5061434;28;20127;-68
2021/08/17 07:15:27;;;;;;;9.70;4.50;;;;;;;13.41;93.48;98882.91;5063247;28;20345;-67
2021/08/17 07:17:53;;;;;;;9.90;4.15;;;;;;;13.39;93.92;98879.50;5063053;28;20359;-69
2021/08/17 07:20:19;;;;;;;9.02;3.85;;;;;;;13.38;93.55;98864.78;5062912;28;20051;-67
2021/08/17 07:22:45;;;;;;;12.10;4.45;;;;;;;13.39;93.67;98876.91;5062936;28;20029;-68
2021/08/17 07:25:10;;;;;;;8.20;4.63;;;;;;;13.37;93.41;98874.34;5062758;28;20112;-68
2021/08/17 07:27:36;;;;;;;14.05;4.40;;;;;;;13.33;93.73;98872.81;5060775;28;20086;-70
2021/08/17 07:30:06;;;;;;;9.40;3.70;;;;;;;13.37;93.43;98870.94;5062057;28;20021;-70
2021/08/17 07:32:32;;;;;;;10.00;4.65;;;;;;;13.32;93.81;98865.88;5063027;28;20033;-68
2021/08/17 07:34:57;;;;;;;5.97;3.35;;;;;;;13.33;93.71;98871.97;5062940;28;20013;-69
2021/08/17 07:37:22;;;;;;;7.95;3.65;;;;;;;13.24;93.50;98850.59;5062782;28;20079;-69
2021/08/17 07:39:48;;;;;;;9.45;4.10;;;;;;;13.27;93.63;98853.06;5062447;28;20021;-70
2021/08/17 07:42:13;;;;;;;8.90;3.75;;;;;;;13.33;94.07;98857.19;5064965;28;20077;-69
2021/08/17 07:44:39;;;;;;;7.47;3.72;;;;;;;13.36;94.00;98843.16;5065420;28;20032;-70
2021/08/17 07:47:04;;;;;;;10.65;4.10;;;;;;;13.33;93.95;98838.94;5066491;28;20060;-70
2021/08/17 07:49:29;;;;;;;6.25;3.40;;;;;;;13.36;94.03;98838.78;5066474;28;20032;-69
2021/08/17 07:51:55;;;;;;;8.27;3.63;;;;;;;13.39;94.08;98848.22;5066563;28;20461;-70
2021/08/17 07:54:20;;;;;;;6.30;2.80;;;;;;;13.38;93.92;98850.00;5066468;28;20448;-70
2021/08/17 07:56:53;;;;;;;7.50;3.40;;;;;;;13.27;93.68;98845.25;5066398;28;20160;-69
2021/08/17 07:59:18;;;;;;;6.95;3.10;;;;;;;13.27;93.86;98857.47;5064789;28;20049;-70
2021/08/17 08:01:44;;;;;;;6.05;3.45;;;;;;;13.27;93.77;98860.88;5066142;28;20491;-68
2021/08/17 08:04:09;;;;;;;7.07;3.60;;;;;;;13.22;93.83;98857.66;5066067;28;20084;-69
2021/08/17 08:06:34;;;;;;;7.75;4.72;;;;;;;13.29;94.04;98863.41;5066188;28;20107;-70
2021/08/17 08:09:00;;;;;;;8.05;3.47;;;;;;;13.34;94.45;98884.91;5065810;28;20052;-70
2021/08/17 08:11:25;;;;;;;8.18;3.10;;;;;;;13.30;94.01;98885.97;5065791;28;20047;-69
2021/08/17 08:13:50;;;;;;;7.30;3.78;;;;;;;13.32;93.88;98889.34;5065956;28;20051;-69
2021/08/17 08:16:16;;;;;;;5.88;3.20;;;;;;;13.27;93.98;98891.34;5066039;28;20032;-68
2021/08/17 08:18:41;;;;;;;6.32;3.47;;;;;;;13.26;94.10;98881.81;5065946;28;20020;-69
2021/08/17 08:21:07;;;;;;;6.50;3.72;;;;;;;13.32;94.27;98893.75;5066086;28;20020;-69
2021/08/17 08:23:33;;;;;;;11.95;3.88;;;;;;;13.39;94.55;98893.38;5065900;28;20053;-68
2021/08/17 08:25:58;;;;;;;10.63;3.78;;;;;;;13.45;94.29;98881.84;5065592;28;20025;-69
2021/08/17 08:28:23;;;;;;;7.63;3.58;;;;;;;13.53;94.17;98894.53;5065749;28;20020;-69
2021/08/17 08:30:49;;;;;;;8.35;4.38;;;;;;;13.54;94.44;98892.78;5065522;28;20028;-67
2021/08/17 08:33:14;;;;;;;6.55;3.80;;;;;;;13.58;94.48;98883.91;5065588;28;20074;-66
2021/08/17 08:35:40;;;;;;;6.47;3.50;;;;;;;13.56;94.22;98876.16;5065750;28;20013;-67
2021/08/17 08:38:06;;;;;;;6.43;3.63;;;;;;;13.56;94.16;98886.59;5065352;28;20025;-67
2021/08/17 08:40:32;;;;;;;7.47;4.45;;;;;;;13.55;94.23;98884.03;5065694;28;20424;-68
2021/08/17 08:42:57;;;;;;;10.32;4.40;;;;;;;13.51;93.93;98886.78;5065640;28;20033;-69
2021/08/17 08:45:23;;;;;;;9.73;4.53;;;;;;;13.50;94.22;98886.84;5065524;28;20029;-67
2021/08/17 08:47:48;;;;;;;6.20;3.67;;;;;;;13.59;94.31;98901.25;5065410;28;20046;-68
2021/08/17 08:50:15;;;;;;;10.95;3.83;;;;;;;13.60;94.38;98902.94;5065051;28;20032;-68
2021/08/17 08:52:40;;;;;;;7.82;4.03;;;;;;;13.56;94.07;98899.63;5064862;28;20344;-69
2021/08/17 08:55:07;;;;;;;10.45;4.78;;;;;;;13.53;94.29;98904.97;5065106;28;20364;-68
2021/08/17 08:57:34;;;;;;;8.13;3.90;;;;;;;13.57;94.41;98905.69;5065210;28;20017;-69
2021/08/17 08:59:59;;;;;;;8.40;3.75;;;;;;;13.60;94.41;98903.81;5064955;28;20051;-70
2021/08/17 09:02:29;;;;;;;6.43;3.80;;;;;;;13.60;94.34;98914.22;5063723;28;20028;-68
2021/08/17 09:05:00;;;;;;;7.57;3.88;;;;;;;13.59;94.45;98909.09;5064857;28;20029;-70
2021/08/17 09:07:42;;;;;;;6.90;3.60;;;;;;;13.53;94.35;98912.78;5064712;28;20021;-69
2021/08/17 09:10:11;;;;;;;6.35;3.50;;;;;;;13.58;94.37;98900.41;5064725;28;20028;-70
2021/08/17 09:12:42;;;;;;;7.30;3.60;;;;;;;13.57;94.36;98897.88;5064734;28;20032;-70
2021/08/17 09:15:12;;;;;;;5.97;3.47;;;;;;;13.66;94.42;98915.69;5065279;28;20110;-69
2021/08/17 09:17:39;;;;;;;3.92;2.53;;;;;;;13.70;94.42;98919.88;5064812;28;20028;-70
2021/08/17 09:20:05;;;;;;;9.35;3.50;;;;;;;13.69;94.33;98910.34;5064794;28;20021;-69
2021/08/17 09:22:31;;;;;;;5.60;3.70;;;;;;;13.75;94.32;98915.28;5063290;28;20380;-69
2021/08/17 09:24:59;;;;;;;5.53;3.30;;;;;;;13.81;94.41;98926.34;5064254;28;20033;-70
2021/08/17 09:27:28;;;;;;;6.65;3.20;;;;;;;13.77;94.29;98923.03;5063181;28;20028;-71
2021/08/17 09:30:06;;;;;;;5.78;3.08;;;;;;;13.75;94.12;98909.25;5064575;28;20036;-72
2021/08/17 09:32:32;;;;;;;4.85;3.35;;;;;;;13.74;94.08;98921.44;5064665;28;20040;-71
2021/08/17 09:35:00;;;;;;;7.70;4.47;;;;;;;13.75;94.07;98923.09;5064184;28;20052;-71
2021/08/17 09:37:27;;;;;;;6.75;4.00;;;;;;;13.76;93.94;98908.31;5064193;28;20021;-71
2021/08/17 09:39:54;;;;;;;6.60;4.05;;;;;;;13.80;94.21;98917.69;5063971;28;20028;-71
2021/08/17 09:42:27;;;;;;;9.73;4.45;;;;;;;13.83;93.97;98925.38;5064429;28;20021;-71
2021/08/17 09:45:07;;;;;;;10.98;3.60;;;;;;;13.80;93.90;98914.25;5064327;28;20039;-72
2021/08/17 09:47:37;;;;;;;7.90;3.65;;;;;;;13.73;93.97;98917.13;5064260;28;20638;-73
2021/08/17 09:50:24;;;;;;;7.07;3.78;;;;;;;13.73;94.19;98926.72;5063966;28;20083;-73
2021/08/17 09:53:04;;;;;;;7.20;4.07;;;;;;;13.74;94.15;98921.44;5063960;28;20021;-72
2021/08/17 09:55:30;;;;;;;8.68;4.47;;;;;;;13.76;94.08;98929.19;5064129;28;20020;-72
2021/08/17 09:57:55;;;;;;;11.63;5.00;;;;;;;13.82;94.35;98928.03;5063574;28;20033;-70
2021/08/17 10:00:20;;;;;;;10.73;4.53;;;;;;;13.89;94.64;98919.03;5063788;28;20078;-71
2021/08/17 10:02:48;;;;;;;7.80;5.05;;;;;;;13.91;94.51;98925.03;5062313;28;20020;-70
2021/08/17 10:05:15;;;;;;;8.10;4.70;;;;;;;13.96;94.24;98925.66;5062188;28;20051;-71
2021/08/17 10:07:42;;;;;;;11.52;5.88;;;;;;;13.99;94.60;98927.28;5063743;28;20087;-71
2021/08/17 10:10:11;;;;;;;5.30;3.70;;;;;;;14.01;94.42;98922.81;5063677;28;20029;-73
2021/08/17 10:12:37;;;;;;;6.38;4.35;;;;;;;13.95;94.25;98929.19;5063875;28;20020;-71
2021/08/17 10:15:07;;;;;;;10.02;4.07;;;;;;;13.93;94.37;98932.78;5063962;28;20024;-70
2021/08/17 10:17:33;;;;;;;14.07;4.47;;;;;;;13.92;94.36;98938.91;5063766;28;20082;-70
2021/08/17 10:19:59;;;;;;;12.77;4.72;;;;;;;13.90;94.13;98930.31;5063602;28;20028;-69
2021/08/17 10:22:25;;;;;;;7.45;4.53;;;;;;;13.86;94.16;98927.00;5063459;28;20528;-69
2021/08/17 10:24:50;;;;;;;6.63;4.75;;;;;;;13.85;94.38;98922.72;5063426;28;20017;-69
2021/08/17 10:27:24;;;;;;;7.82;4.03;;;;;;;13.93;94.57;98941.44;5063552;28;20116;-70
2021/08/17 10:29:58;;;;;;;9.30;4.32;;;;;;;13.98;94.37;98936.00;5063403;28;20088;-69
2021/08/17 10:32:54;;;;;;;10.27;4.40;;;;;;;14.03;94.54;98941.88;5063368;28;20033;-69
2021/08/17 10:35:34;;;;;;;7.50;3.70;;;;;;;14.00;94.15;98944.63;5063546;28;20044;-70
2021/08/17 10:38:12;;;;;;;14.38;4.25;;;;;;;13.93;94.17;98935.41;5063573;28;20386;-70
2021/08/17 10:40:52;;;;;;;8.85;4.30;;;;;;;13.92;94.42;98938.91;5063198;28;20054;-69
2021/08/17 10:43:27;;;;;;;8.27;4.60;;;;;;;13.96;94.51;98943.09;5063472;28;20025;-70
2021/08/17 10:45:59;;;;;;;7.22;3.78;;;;;;;13.96;94.25;98940.47;5063166;28;20021;-70
2021/08/17 10:51:12;;;;;;;11.85;4.03;;;;;;;14.04;94.44;98940.94;5063192;28;20025;-70
2021/08/17 10:53:38;;;;;;;8.63;3.65;;;;;;;14.07;94.42;98939.97;5063250;28;20020;-70
2021/08/17 10:56:31;;;;;;;6.25;4.10;;;;;;;14.12;94.29;98940.63;5063118;28;20226;-71
2021/08/17 10:58:58;;;;;;;10.02;3.50;;;;;;;14.18;94.53;98944.69;5061610;28;20195;-71
2021/08/17 11:01:35;;;;;;;5.93;3.53;;;;;;;14.28;94.49;98956.38;5063108;28;20063;-72
2021/08/17 11:04:12;;;;;;;5.35;3.17;;;;;;;14.37;94.56;98944.66;5063188;28;20036;-74
2021/08/17 11:06:54;;;;;;;11.68;3.42;;;;;;;14.37;94.11;98950.72;5063095;28;20072;-74
2021/08/17 11:09:30;;;;;;;6.80;3.92;;;;;;;14.44;94.10;98953.06;5062728;28;20100;-74
2021/08/17 11:11:58;;;;;;;5.30;3.00;;;;;;;14.56;94.18;98955.06;5063239;28;20039;-76
2021/08/17 11:14:26;;;;;;;8.07;3.72;;;;;;;14.66;94.44;98949.38;5063002;28;20032;-77
2021/08/17 11:16:58;;;;;;;7.30;3.08;;;;;;;14.77;94.32;98947.09;5064853;28;20116;-77
2021/08/17 11:19:26;;;;;;;5.43;3.03;;;;;;;14.79;94.00;98955.72;5066893;28;20021;-75
2021/08/17 11:21:58;;;;;;;3.92;2.92;;;;;;;14.81;94.01;98964.34;5066823;28;20047;-75
2021/08/17 11:24:31;;;;;;;6.07;2.78;;;;;;;14.68;92.91;98963.22;5066799;28;20017;-74
2021/08/17 11:26:59;;;;;;;8.25;3.40;;;;;;;14.66;92.97;98954.63;5066224;28;20033;-73
2021/08/17 11:29:31;;;;;;;4.68;2.70;;;;;;;14.73;93.17;98963.81;5065781;28;20020;-73